createdAt,value
2023-04-18T00:00:25.196Z,89.60
2023-04-18T00:02:54.880Z,90.00
2023-04-18T00:05:23.594Z,90.20
2023-04-18T00:07:52.705Z,90.40
2023-04-18T00:10:20.702Z,90.50
2023-04-18T00:12:50.017Z,90.70
2023-04-18T00:15:18.499Z,91.00
2023-04-18T00:17:48.163Z,91.10
2023-04-18T00:20:16.215Z,91.30
2023-04-18T00:22:46.360Z,91.40
2023-04-18T00:25:14.374Z,91.60
2023-04-18T00:27:42.969Z,91.80
2023-04-18T00:30:13.260Z,92.00
2023-04-18T00:32:41.245Z,92.10
2023-04-18T00:35:09.771Z,92.20
2023-04-18T00:37:38.202Z,92.40
2023-04-18T00:40:07.213Z,92.60
2023-04-18T00:42:35.116Z,92.70
2023-04-18T00:45:03.099Z,92.80
2023-04-18T00:47:32.591Z,92.90
2023-04-18T00:50:00.636Z,93.00
2023-04-18T00:52:28.863Z,93.20
2023-04-18T00:54:57.111Z,93.30
2023-04-18T00:57:25.499Z,93.40
2023-04-18T00:59:53.434Z,93.50
2023-04-18T01:02:22.246Z,93.70
2023-04-18T01:04:52.161Z,93.90
2023-04-18T01:07:20.105Z,94.00
2023-04-18T01:09:48.626Z,94.10
2023-04-18T01:12:16.687Z,94.30
2023-04-18T01:14:44.650Z,94.40
2023-04-18T01:17:13.315Z,94.50
2023-04-18T01:19:41.545Z,94.70
2023-04-18T01:22:14.392Z,94.90
2023-04-18T01:24:43.689Z,94.90
2023-04-18T01:27:13.369Z,95.10
2023-04-18T01:29:41.795Z,95.10
2023-04-18T01:32:09.699Z,95.20
2023-04-18T01:34:37.691Z,95.40
2023-04-18T01:37:05.659Z,95.60
2023-04-18T01:39:33.604Z,95.70
2023-04-18T01:42:03.004Z,95.80
2023-04-18T01:44:30.884Z,95.90
2023-04-18T01:46:58.928Z,96.40
2023-04-18T01:49:26.908Z,96.20
2023-04-18T01:51:54.863Z,96.40
2023-04-18T01:54:22.818Z,96.50
2023-04-18T01:56:50.709Z,96.60
2023-04-18T01:59:19.960Z,96.70
2023-04-18T02:01:48.020Z,96.70
2023-04-18T02:04:16.196Z,96.80
2023-04-18T02:06:44.321Z,96.90
2023-04-18T02:09:12.381Z,97.00
2023-04-18T02:11:40.257Z,97.10
2023-04-18T02:14:08.282Z,97.20
2023-04-18T02:16:38.764Z,97.30
2023-04-18T02:19:06.899Z,97.40
2023-04-18T02:21:34.865Z,97.40
2023-04-18T02:24:02.994Z,97.60
2023-04-18T02:26:31.268Z,97.70
2023-04-18T02:28:59.607Z,97.80
2023-04-18T02:31:27.509Z,98.00
2023-04-18T02:33:56.767Z,98.10
2023-04-18T02:36:26.133Z,98.10
2023-04-18T02:38:54.248Z,98.30
2023-04-18T02:41:22.174Z,98.40
2023-04-18T02:43:50.331Z,98.60
2023-04-18T02:46:18.478Z,98.60
2023-04-18T02:48:46.384Z,98.80
2023-04-18T02:51:15.937Z,98.90
2023-04-18T02:53:43.907Z,99.10
2023-04-18T02:56:12.942Z,99.20
2023-04-18T02:58:40.858Z,99.40
2023-04-18T03:01:08.779Z,99.60
2023-04-18T03:03:36.682Z,99.80
2023-04-18T03:06:04.864Z,99.90
2023-04-18T03:08:34.097Z,99.90
2023-04-18T03:11:01.990Z,99.90
2023-04-18T03:13:29.909Z,99.90
2023-04-18T03:15:57.921Z,99.90
2023-04-18T03:18:26.098Z,99.90
2023-04-18T03:20:54.010Z,99.90
2023-04-18T03:23:21.960Z,99.90
2023-04-18T03:25:51.250Z,99.90
2023-04-18T03:28:19.214Z,99.90
2023-04-18T03:30:47.131Z,99.90
2023-04-18T03:33:16.992Z,99.90
2023-04-18T03:35:44.936Z,99.90
2023-04-18T03:38:12.814Z,99.90
2023-04-18T03:40:42.080Z,99.90
2023-04-18T03:43:11.549Z,99.90
2023-04-18T03:45:39.515Z,99.90
2023-04-18T03:48:08.187Z,99.90
2023-04-18T03:50:36.283Z,99.90
2023-04-18T03:53:04.220Z,99.90
2023-04-18T03:55:32.358Z,99.90
2023-04-18T03:58:00.579Z,99.90
2023-04-18T04:00:30.191Z,99.90
2023-04-18T04:02:58.346Z,99.90
2023-04-18T04:05:26.878Z,99.90
2023-04-18T04:07:55.135Z,99.90
2023-04-18T04:10:23.116Z,99.90
2023-04-18T04:12:51.274Z,99.90
2023-04-18T04:15:19.303Z,99.90
2023-04-18T04:17:48.724Z,99.90
2023-04-18T04:20:22.807Z,99.90
2023-04-18T04:22:50.697Z,99.90
2023-04-18T04:25:18.658Z,99.90
2023-04-18T04:27:46.695Z,99.90
2023-04-18T04:30:14.934Z,99.90
2023-04-18T04:32:44.641Z,99.90
2023-04-18T04:35:13.983Z,99.90
2023-04-18T04:37:44.251Z,99.90
2023-04-18T04:40:12.876Z,99.90
2023-04-18T04:42:41.147Z,99.90
2023-04-18T04:45:10.507Z,99.90
2023-04-18T04:47:38.517Z,99.90
2023-04-18T04:50:14.727Z,99.90
2023-04-18T04:52:44.437Z,99.90
2023-04-18T04:55:13.719Z,99.90
2023-04-18T04:57:41.601Z,99.90
2023-04-18T05:00:11.125Z,99.90
2023-04-18T05:02:39.126Z,99.90
2023-04-18T05:05:07.418Z,99.90
2023-04-18T05:07:35.357Z,99.90
2023-04-18T05:10:05.066Z,99.90
2023-04-18T05:12:32.965Z,99.90
2023-04-18T05:15:00.886Z,99.90
2023-04-18T05:17:28.874Z,99.90
2023-04-18T05:19:56.795Z,99.90
2023-04-18T05:22:24.786Z,99.90
2023-04-18T05:24:52.767Z,99.90
2023-04-18T05:27:22.197Z,99.90
2023-04-18T05:29:50.419Z,99.90
2023-04-18T05:32:18.413Z,99.90
2023-04-18T05:34:46.899Z,99.90
2023-04-18T05:37:14.800Z,99.90
2023-04-18T05:39:43.318Z,99.90
2023-04-18T05:42:11.181Z,99.90
2023-04-18T05:44:40.401Z,99.90
2023-04-18T05:47:08.228Z,99.90
2023-04-18T05:49:36.279Z,99.90
2023-04-18T05:52:04.210Z,99.90
2023-04-18T05:54:32.246Z,99.90
2023-04-18T05:57:00.866Z,99.90
2023-04-18T05:59:29.799Z,99.90
2023-04-18T06:01:59.017Z,99.90
2023-04-18T06:04:27.162Z,99.90
2023-04-18T06:06:55.175Z,99.90
2023-04-18T06:09:23.058Z,99.90
2023-04-18T06:11:50.979Z,99.90
2023-04-18T06:14:18.829Z,99.90
2023-04-18T06:16:46.878Z,99.90
2023-04-18T06:19:16.211Z,99.90
2023-04-18T06:21:44.125Z,99.90
2023-04-18T06:24:12.329Z,99.90
2023-04-18T06:26:40.972Z,99.90
2023-04-18T06:29:08.869Z,99.90
2023-04-18T06:31:36.825Z,99.90
2023-04-18T06:34:04.696Z,99.90
2023-04-18T06:36:34.026Z,99.90
2023-04-18T06:39:02.021Z,99.90
2023-04-18T06:41:30.022Z,99.90
2023-04-18T06:44:02.683Z,99.90
2023-04-18T06:46:32.015Z,99.90
2023-04-18T06:49:00.045Z,99.90
2023-04-18T06:51:27.877Z,99.90
2023-04-18T06:53:57.114Z,99.90
2023-04-18T06:56:25.014Z,99.90
2023-04-18T06:58:54.082Z,99.90
2023-04-18T07:01:22.036Z,99.90
2023-04-18T07:03:50.021Z,99.90
2023-04-18T07:06:18.681Z,99.90
2023-04-18T07:08:46.556Z,99.90
2023-04-18T07:11:18.343Z,99.90
2023-04-18T07:13:47.342Z,99.90
2023-04-18T07:16:15.319Z,99.90
2023-04-18T07:18:43.255Z,99.90
2023-04-18T07:21:11.117Z,99.90
2023-04-18T07:23:39.019Z,99.90
2023-04-18T07:26:09.408Z,99.90
2023-04-18T07:28:38.661Z,99.90
2023-04-18T07:31:11.027Z,99.90
2023-04-18T07:33:39.192Z,99.90
2023-04-18T07:36:07.671Z,99.90
2023-04-18T07:38:36.379Z,99.90
2023-04-18T07:41:04.794Z,99.90
2023-04-18T07:43:32.720Z,99.90
2023-04-18T07:46:02.178Z,99.90
2023-04-18T07:48:30.133Z,99.90
2023-04-18T07:50:58.112Z,99.90
2023-04-18T07:53:26.019Z,99.90
2023-04-18T07:55:54.380Z,99.90
2023-04-18T07:58:22.497Z,99.90
2023-04-18T08:00:50.606Z,99.90
2023-04-18T08:03:20.177Z,99.90
2023-04-18T08:05:49.009Z,99.90
2023-04-18T08:08:18.174Z,99.90
2023-04-18T08:10:46.239Z,99.90
2023-04-18T08:13:14.197Z,99.90
2023-04-18T08:15:42.331Z,99.90
2023-04-18T08:18:10.338Z,99.90
2023-04-18T08:20:40.146Z,99.90
2023-04-18T08:23:11.301Z,99.90
2023-04-18T08:25:40.901Z,99.90
2023-04-18T08:28:09.023Z,99.90
2023-04-18T08:30:37.043Z,99.50
2023-04-18T08:33:05.100Z,99.00
2023-04-18T08:35:33.592Z,98.80
2023-04-18T08:38:03.505Z,98.60
2023-04-18T08:40:31.708Z,98.40
2023-04-18T08:43:04.920Z,98.10
2023-04-18T08:45:33.392Z,97.90
2023-04-18T08:48:03.687Z,97.40
2023-04-18T08:50:32.260Z,96.80
2023-04-18T08:53:01.847Z,96.80
2023-04-18T08:55:33.506Z,96.70
2023-04-18T08:58:01.451Z,96.90
2023-04-18T09:00:30.579Z,96.80
2023-04-18T09:02:59.185Z,96.90
2023-04-18T09:05:28.432Z,96.90
2023-04-18T09:07:58.066Z,97.10
2023-04-18T09:10:28.652Z,96.90
2023-04-18T09:12:59.940Z,97.20
2023-04-18T09:15:29.238Z,97.00
2023-04-18T09:17:59.213Z,96.80
2023-04-18T09:20:35.578Z,96.60
2023-04-18T09:23:05.279Z,96.40
2023-04-18T09:25:40.164Z,96.00
2023-04-18T09:28:24.933Z,95.90
2023-04-18T09:30:54.350Z,95.70
2023-04-18T09:33:29.102Z,95.50
2023-04-18T09:36:00.224Z,95.60
2023-04-18T09:38:41.044Z,95.40
2023-04-18T09:41:10.103Z,95.10
2023-04-18T09:43:39.583Z,94.50
2023-04-18T09:46:09.370Z,93.70
2023-04-18T09:48:37.657Z,92.80
2023-04-18T09:51:08.311Z,92.10
2023-04-18T09:53:40.619Z,91.30
2023-04-18T09:56:14.015Z,90.90
2023-04-18T09:58:44.934Z,90.80
2023-04-18T10:01:13.392Z,91.20
2023-04-18T10:03:47.657Z,90.20
2023-04-18T10:06:17.524Z,82.70
2023-04-18T10:08:46.465Z,67.30
2023-04-18T10:11:14.662Z,56.00
2023-04-18T10:13:48.218Z,46.60
2023-04-18T10:16:16.932Z,38.70
2023-04-18T10:18:44.856Z,35.00
2023-04-18T10:21:13.258Z,34.10
2023-04-18T10:23:41.548Z,34.80
2023-04-18T10:26:10.131Z,35.30
2023-04-18T10:28:54.301Z,34.00
2023-04-18T10:31:23.479Z,30.90
2023-04-18T10:34:04.080Z,28.00
2023-04-18T10:36:34.027Z,25.80
2023-04-18T10:39:04.286Z,24.10
2023-04-18T10:41:32.941Z,23.70
2023-04-18T10:44:22.516Z,24.00
2023-04-18T10:47:19.539Z,25.10
2023-04-18T10:50:00.946Z,25.90
2023-04-18T10:52:29.758Z,26.50
2023-04-18T10:55:10.801Z,26.00
2023-04-18T10:57:42.901Z,25.40
2023-04-18T11:00:15.228Z,23.60
2023-04-18T11:02:50.460Z,22.80
2023-04-18T11:05:23.666Z,23.20
2023-04-18T11:07:51.828Z,24.40
2023-04-18T11:10:21.281Z,25.40
2023-04-18T11:12:49.491Z,26.80
2023-04-18T11:15:21.654Z,28.00
2023-04-18T11:17:58.364Z,29.20
2023-04-18T11:20:26.668Z,30.40
2023-04-18T11:22:56.136Z,31.80
2023-04-18T11:25:26.987Z,32.90
2023-04-18T11:27:55.816Z,33.80
2023-04-18T11:30:25.388Z,34.70
2023-04-18T11:32:54.137Z,35.70
2023-04-18T11:35:22.291Z,36.20
2023-04-18T11:37:51.192Z,36.80
2023-04-18T11:40:19.220Z,37.50
2023-04-18T11:42:47.253Z,38.00
2023-04-18T11:45:16.224Z,38.60
2023-04-18T11:47:47.380Z,39.10
2023-04-18T11:50:15.323Z,39.60
2023-04-18T11:52:43.524Z,40.20
2023-04-18T11:55:18.387Z,40.80
2023-04-18T11:57:53.898Z,41.20
2023-04-18T12:00:32.758Z,41.70
2023-04-18T12:03:04.544Z,42.30
2023-04-18T12:05:34.518Z,42.90
2023-04-18T12:08:11.325Z,43.20
2023-04-18T12:10:46.123Z,44.30
2023-04-18T12:13:14.164Z,44.10
2023-04-18T12:15:44.699Z,44.60
2023-04-18T12:18:15.340Z,45.00
2023-04-18T12:20:50.262Z,45.50
2023-04-18T12:23:32.044Z,45.80
2023-04-18T12:26:01.092Z,46.00
2023-04-18T12:28:29.192Z,46.20
2023-04-18T12:30:57.070Z,46.40
2023-04-18T12:33:26.877Z,46.50
2023-04-18T12:35:55.989Z,46.70
2023-04-18T12:38:24.909Z,46.70
2023-04-18T12:40:53.377Z,46.70
2023-04-18T12:43:22.558Z,46.60
2023-04-18T12:45:51.081Z,46.60
2023-04-18T12:48:19.050Z,46.80
2023-04-18T12:50:48.355Z,47.00
2023-04-18T12:53:16.273Z,46.90
2023-04-18T12:55:47.166Z,47.10
2023-04-18T12:58:18.497Z,47.10
2023-04-18T13:00:46.657Z,47.30
2023-04-18T13:03:14.729Z,47.60
2023-04-18T13:05:42.823Z,47.70
2023-04-18T13:08:16.724Z,48.00
2023-04-18T13:10:45.652Z,48.00
2023-04-18T13:13:13.782Z,48.00
2023-04-18T13:15:41.863Z,48.20
2023-04-18T13:18:09.847Z,48.50
2023-04-18T13:20:37.806Z,48.60
2023-04-18T13:23:05.801Z,48.70
2023-04-18T13:25:35.097Z,48.80
2023-04-18T13:28:02.993Z,48.90
2023-04-18T13:30:31.744Z,49.10
2023-04-18T13:32:59.750Z,49.40
2023-04-18T13:35:27.714Z,49.50
2023-04-18T13:37:56.014Z,49.60
2023-04-18T13:40:24.216Z,49.30
2023-04-18T13:42:53.511Z,48.80
2023-04-18T13:45:21.701Z,48.60
2023-04-18T13:47:49.702Z,48.50
2023-04-18T13:50:17.678Z,48.40
2023-04-18T13:52:46.881Z,48.20
2023-04-18T13:55:16.129Z,47.20
2023-04-18T13:57:44.099Z,47.00
2023-04-18T14:00:15.141Z,46.70
2023-04-18T14:02:43.218Z,46.80
2023-04-18T14:05:11.556Z,46.80
2023-04-18T14:07:39.528Z,47.00
2023-04-18T14:10:08.771Z,46.60
2023-04-18T14:12:38.316Z,46.40
2023-04-18T14:15:07.400Z,46.50
2023-04-18T14:17:36.747Z,46.40
2023-04-18T14:20:07.742Z,46.60
2023-04-18T14:22:35.759Z,46.70
2023-04-18T14:25:03.665Z,46.80
2023-04-18T14:27:31.550Z,46.90
2023-04-18T14:29:59.773Z,47.20
2023-04-18T14:32:27.836Z,47.10
2023-04-18T14:34:58.775Z,47.40
2023-04-18T14:37:26.602Z,47.90
2023-04-18T14:39:54.478Z,48.20
2023-04-18T14:42:22.741Z,48.30
2023-04-18T14:44:50.640Z,48.30
2023-04-18T14:47:18.528Z,48.60
2023-04-18T14:49:46.488Z,48.50
2023-04-18T14:52:15.832Z,49.00
2023-04-18T14:54:43.969Z,48.80
2023-04-18T14:57:12.829Z,48.90
2023-04-18T14:59:40.762Z,49.10
2023-04-18T15:02:08.755Z,49.00
2023-04-18T15:04:36.734Z,49.00
2023-04-18T15:07:04.865Z,48.70
2023-04-18T15:09:38.557Z,48.30
2023-04-18T15:12:08.068Z,48.70
2023-04-18T15:14:36.112Z,49.00
2023-04-18T15:17:04.543Z,49.20
2023-04-18T15:19:32.827Z,49.30
2023-04-18T15:22:00.905Z,49.20
2023-04-18T15:24:28.861Z,49.20
2023-04-18T15:26:58.748Z,48.80
2023-04-18T15:29:26.974Z,48.50
2023-04-18T15:31:54.918Z,48.10
2023-04-18T15:34:22.903Z,47.90
2023-04-18T15:36:50.816Z,47.90
2023-04-18T15:39:22.000Z,47.90
2023-04-18T15:41:52.851Z,47.70
2023-04-18T15:44:22.323Z,47.90
2023-04-18T15:46:50.688Z,48.60
2023-04-18T15:49:18.536Z,48.40
2023-04-18T15:51:46.443Z,48.70
2023-04-18T15:54:14.518Z,49.00
2023-04-18T15:56:44.584Z,49.10
2023-04-18T15:59:13.199Z,49.30
2023-04-18T16:01:45.191Z,49.50
2023-04-18T16:04:14.343Z,50.00
2023-04-18T16:06:42.549Z,50.20
2023-04-18T16:09:10.454Z,50.10
2023-04-18T16:11:38.379Z,50.00
2023-04-18T16:14:06.451Z,49.80
2023-04-18T16:16:34.926Z,49.80
2023-04-18T16:19:04.320Z,49.80
2023-04-18T16:21:32.445Z,49.70
2023-04-18T16:24:00.373Z,49.70
2023-04-18T16:26:28.893Z,49.80
2023-04-18T16:28:57.028Z,50.00
2023-04-18T16:31:25.023Z,50.20
2023-04-18T16:33:53.436Z,50.00
2023-04-18T16:36:22.774Z,49.90
2023-04-18T16:38:51.213Z,49.80
2023-04-18T16:41:19.189Z,49.80
2023-04-18T16:43:47.179Z,50.00
2023-04-18T16:46:15.397Z,50.20
2023-04-18T16:48:45.272Z,50.40
2023-04-18T16:51:13.649Z,50.60
2023-04-18T16:53:42.926Z,50.80
2023-04-18T16:56:10.828Z,51.10
2023-04-18T16:58:38.741Z,51.30
2023-04-18T17:01:08.143Z,51.30
2023-04-18T17:03:36.535Z,51.50
2023-04-18T17:06:05.841Z,51.60
2023-04-18T17:08:34.260Z,51.70
2023-04-18T17:11:03.767Z,51.70
2023-04-18T17:13:32.088Z,51.70
2023-04-18T17:16:00.106Z,51.90
2023-04-18T17:18:29.271Z,52.10
2023-04-18T17:20:57.157Z,52.30
2023-04-18T17:23:25.084Z,52.50
2023-04-18T17:25:52.974Z,52.60
2023-04-18T17:28:23.640Z,52.90
2023-04-18T17:30:51.834Z,53.10
2023-04-18T17:33:19.727Z,53.20
2023-04-18T17:35:48.179Z,53.40
2023-04-18T17:38:18.374Z,53.40
2023-04-18T17:40:46.330Z,53.60
2023-04-18T17:43:14.225Z,53.70
2023-04-18T17:45:44.107Z,53.80
2023-04-18T17:48:12.095Z,53.90
2023-04-18T17:50:40.367Z,54.10
2023-04-18T17:53:08.333Z,54.10
2023-04-18T17:55:36.323Z,54.40
2023-04-18T17:58:05.115Z,54.60
2023-04-18T18:00:33.077Z,54.80
2023-04-18T18:03:03.870Z,55.00
2023-04-18T18:05:32.026Z,55.30
2023-04-18T18:08:01.299Z,55.50
2023-04-18T18:10:29.627Z,55.80
2023-04-18T18:12:57.568Z,56.10
2023-04-18T18:15:25.655Z,56.30
2023-04-18T18:17:54.788Z,56.60
2023-04-18T18:20:24.585Z,56.80
2023-04-18T18:22:55.698Z,57.10
2023-04-18T18:25:23.549Z,57.30
2023-04-18T18:27:51.591Z,57.60
2023-04-18T18:30:19.574Z,57.80
2023-04-18T18:32:47.455Z,58.10
2023-04-18T18:35:15.424Z,58.20
2023-04-18T18:37:44.724Z,58.40
2023-04-18T18:40:13.426Z,58.60
2023-04-18T18:42:42.449Z,58.80
2023-04-18T18:45:11.313Z,59.10
2023-04-18T18:47:40.185Z,59.40
2023-04-18T18:50:09.142Z,59.70
2023-04-18T18:52:40.568Z,60.00
2023-04-18T18:55:11.556Z,60.40
2023-04-18T18:57:39.483Z,60.90
2023-04-18T19:00:10.770Z,61.40
2023-04-18T19:02:38.996Z,61.90
2023-04-18T19:05:08.004Z,62.40
2023-04-18T19:07:35.866Z,62.80
2023-04-18T19:10:04.967Z,63.40
2023-04-18T19:12:35.309Z,63.90
2023-04-18T19:15:03.197Z,64.50
2023-04-18T19:17:31.118Z,65.00
2023-04-18T19:20:01.159Z,65.60
2023-04-18T19:22:29.410Z,66.30
2023-04-18T19:24:57.525Z,66.60
2023-04-18T19:27:25.586Z,67.10
2023-04-18T19:29:54.816Z,67.50
2023-04-18T19:32:22.837Z,68.10
2023-04-18T19:34:51.067Z,68.60
2023-04-18T19:37:18.973Z,69.30
2023-04-18T19:39:46.824Z,70.00
2023-04-18T19:42:14.729Z,70.50
2023-04-18T19:44:42.676Z,70.80
2023-04-18T19:47:11.974Z,71.10
2023-04-18T19:49:40.103Z,71.30
2023-04-18T19:52:07.974Z,71.50
2023-04-18T19:54:35.886Z,71.70
2023-04-18T19:57:04.599Z,71.80
2023-04-18T19:59:32.567Z,71.80
2023-04-18T20:02:03.297Z,71.90
2023-04-18T20:04:36.422Z,72.10
2023-04-18T20:07:04.823Z,72.20
2023-04-18T20:09:32.771Z,72.20
2023-04-18T20:12:01.974Z,72.30
2023-04-18T20:14:30.202Z,72.40
2023-04-18T20:16:58.220Z,72.60
2023-04-18T20:19:26.930Z,72.70
2023-04-18T20:21:56.215Z,72.90
2023-04-18T20:24:27.911Z,73.20
2023-04-18T20:26:55.813Z,73.40
2023-04-18T20:29:23.665Z,73.70
2023-04-18T20:31:51.691Z,73.90
2023-04-18T20:34:20.199Z,74.10
2023-04-18T20:36:49.847Z,74.40
2023-04-18T20:39:19.084Z,74.70
2023-04-18T20:41:50.870Z,74.90
2023-04-18T20:44:20.915Z,75.10
2023-04-18T20:46:49.018Z,75.40
2023-04-18T20:49:17.171Z,75.70
2023-04-18T20:51:45.248Z,75.90
2023-04-18T20:54:13.501Z,76.30
2023-04-18T20:56:43.169Z,76.50
2023-04-18T20:59:11.305Z,76.80
2023-04-18T21:01:39.389Z,77.00
2023-04-18T21:04:07.436Z,77.30
2023-04-18T21:06:36.589Z,77.70
2023-04-18T21:09:04.658Z,78.90
2023-04-18T21:11:32.520Z,78.30
2023-04-18T21:14:03.691Z,78.50
2023-04-18T21:16:31.858Z,78.70
2023-04-18T21:18:59.892Z,79.10
2023-04-18T21:21:27.847Z,79.50
2023-04-18T21:23:55.749Z,79.80
2023-04-18T21:26:23.623Z,80.50
2023-04-18T21:28:56.282Z,81.10
2023-04-18T21:31:25.887Z,82.00
2023-04-18T21:33:54.589Z,82.60
2023-04-18T21:36:22.999Z,83.20
2023-04-18T21:38:53.367Z,83.50
2023-04-18T21:41:21.617Z,84.20
2023-04-18T21:43:49.532Z,84.60
2023-04-18T21:46:18.221Z,84.90
2023-04-18T21:48:48.588Z,85.40
2023-04-18T21:51:17.742Z,85.80
2023-04-18T21:53:45.875Z,86.20
2023-04-18T21:56:14.052Z,86.60
2023-04-18T21:58:42.282Z,86.80
2023-04-18T22:01:10.304Z,87.10
2023-04-18T22:03:38.457Z,87.60
2023-04-18T22:06:08.004Z,88.20
2023-04-18T22:08:35.947Z,88.50
2023-04-18T22:11:04.865Z,89.10
2023-04-18T22:13:33.851Z,89.40
2023-04-18T22:16:03.541Z,89.90
2023-04-18T22:18:33.827Z,90.00
2023-04-18T22:21:02.379Z,90.10
2023-04-18T22:23:32.024Z,90.30
2023-04-18T22:26:00.078Z,90.40
2023-04-18T22:28:28.792Z,90.40
2023-04-18T22:30:57.027Z,90.70
2023-04-18T22:33:25.361Z,90.90
2023-04-18T22:35:55.550Z,91.00
2023-04-18T22:38:23.632Z,91.10
2023-04-18T22:40:52.990Z,91.30
2023-04-18T22:43:23.686Z,91.30
2023-04-18T22:45:52.146Z,91.50
2023-04-18T22:48:20.244Z,91.50
2023-04-18T22:50:49.700Z,91.60
2023-04-18T22:53:18.091Z,91.70
2023-04-18T22:55:46.320Z,91.80
2023-04-18T22:58:15.557Z,91.90
2023-04-18T23:00:43.791Z,92.00
2023-04-18T23:03:11.997Z,92.10
2023-04-18T23:05:40.847Z,92.20
2023-04-18T23:08:08.807Z,92.30
2023-04-18T23:10:36.785Z,92.40
2023-04-18T23:13:04.827Z,92.40
2023-04-18T23:15:34.227Z,92.50
2023-04-18T23:18:02.285Z,92.60
2023-04-18T23:20:30.249Z,92.70
2023-04-18T23:22:58.298Z,92.80
2023-04-18T23:25:26.252Z,92.80
2023-04-18T23:27:54.200Z,92.90
2023-04-18T23:30:22.072Z,93.00
2023-04-18T23:32:51.283Z,93.10
2023-04-18T23:35:19.373Z,93.20
2023-04-18T23:37:49.544Z,93.30
2023-04-18T23:40:17.482Z,93.40
2023-04-18T23:42:45.458Z,93.60
2023-04-18T23:45:13.581Z,93.70
2023-04-18T23:47:41.511Z,94.10
2023-04-18T23:50:12.053Z,94.00
2023-04-18T23:52:40.505Z,94.10
2023-04-18T23:55:09.201Z,94.20
2023-04-18T23:57:37.094Z,94.40
